Time;durP1;ratioP1;P1;durP2;ratioP2;P2;SDS_P1;SDS_P2;PMS_P1;PMS_P2;Temp;Humidity;BMP_temperature;BMP_pressure;BME280_temperature;BME280_humidity;BME280_pressure;Samples;Min_cycle;Max_cycle;Signal;HPM_P1;HPM_P2
2021/12/11 00:02:06;;;;;;;31.48;13.48;;;;;;;3.98;100.00;96476.34;4909590;29;20610;-58
2021/12/11 00:04:35;;;;;;;28.27;12.50;;;;;;;3.25;100.00;96490.25;4907733;29;20032;-62
2021/12/11 00:07:04;;;;;;;25.35;11.90;;;;;;;3.48;100.00;96486.84;4909218;28;20793;-56
2021/12/11 00:09:37;;;;;;;26.33;12.57;;;;;;;3.42;100.00;96487.06;4908939;29;20042;-57
2021/12/11 00:12:02;;;;;;;28.60;13.30;;;;;;;3.47;100.00;96491.16;4910360;29;20064;-59
2021/12/11 00:14:29;;;;;;;892.47;46.38;;;;;;;3.64;100.00;96500.84;4908066;29;20055;-57
2021/12/11 00:16:55;;;;;;;24.55;11.75;;;;;;;3.61;100.00;96494.97;4916084;28;20079;-58
2021/12/11 00:19:28;;;;;;;22.40;12.10;;;;;;;3.33;100.00;96502.84;4908868;29;20107;-59
2021/12/11 00:22:09;;;;;;;26.50;12.18;;;;;;;3.60;100.00;96496.72;4907873;28;20126;-59
2021/12/11 00:24:36;;;;;;;97.85;14.48;;;;;;;4.07;100.00;96507.84;4909776;29;20061;-57
2021/12/11 00:27:10;;;;;;;997.17;54.75;;;;;;;4.14;100.00;96511.88;4908643;29;20151;-57
2021/12/11 00:29:37;;;;;;;49.10;12.10;;;;;;;3.83;100.00;96513.03;4909753;29;20033;-58
2021/12/11 00:32:05;;;;;;;405.77;33.58;;;;;;;4.21;100.00;96521.88;4910872;29;20070;-58
2021/12/11 00:34:31;;;;;;;17.58;9.85;;;;;;;3.74;100.00;96527.13;4909037;29;20060;-61
2021/12/11 00:37:00;;;;;;;24.67;9.32;;;;;;;4.31;100.00;96535.25;4910887;29;20111;-59
2021/12/11 00:39:26;;;;;;;96.25;13.15;;;;;;;4.34;100.00;96537.72;4910733;29;20537;-59
2021/12/11 00:41:55;;;;;;;1999.90;131.13;;;;;;;4.29;100.00;96537.06;4907633;29;20050;-59
2021/12/11 00:44:33;;;;;;;150.57;14.93;;;;;;;4.00;100.00;96544.19;4910962;29;20036;-59
2021/12/11 00:47:20;;;;;;;1999.90;107.68;;;;;;;4.15;100.00;96550.50;4908883;29;20047;-59
2021/12/11 00:49:45;;;;;;;344.42;25.17;;;;;;;3.79;100.00;96552.75;4910079;29;20059;-59
2021/12/11 00:52:11;;;;;;;1999.90;191.57;;;;;;;4.42;100.00;96563.22;4906915;28;20127;-60
2021/12/11 00:54:42;;;;;;;1601.35;80.15;;;;;;;4.24;100.00;96564.78;4905809;29;20805;-57
2021/12/11 00:57:11;;;;;;;556.40;28.80;;;;;;;3.59;100.00;96571.53;4908005;28;20487;-57
2021/12/11 00:59:36;;;;;;;157.65;15.40;;;;;;;3.91;100.00;96572.91;4907252;29;20482;-58
2021/12/11 01:02:03;;;;;;;22.88;10.52;;;;;;;3.61;100.00;96575.72;4907056;29;20102;-58
2021/12/11 01:04:32;;;;;;;1618.90;87.00;;;;;;;3.92;100.00;96576.34;4909993;29;20155;-60
2021/12/11 01:07:03;;;;;;;151.20;13.65;;;;;;;4.41;100.00;96589.94;4907385;29;20894;-59
2021/12/11 01:09:47;;;;;;;433.52;25.90;;;;;;;3.62;100.00;96587.72;4908496;29;20102;-58
2021/12/11 01:12:19;;;;;;;25.63;10.15;;;;;;;3.67;100.00;96587.53;4908930;29;20066;-61
2021/12/11 01:14:52;;;;;;;1464.90;79.18;;;;;;;3.72;100.00;96595.97;4907782;29;20095;-58
2021/12/11 01:17:26;;;;;;;1999.90;235.68;;;;;;;3.91;100.00;96603.03;4909166;29;20146;-58
2021/12/11 01:20:00;;;;;;;281.95;20.55;;;;;;;3.85;100.00;96610.09;4910422;29;20034;-60
2021/12/11 01:22:34;;;;;;;389.17;23.35;;;;;;;3.71;100.00;96612.31;4918922;29;20036;-58
2021/12/11 01:25:12;;;;;;;79.90;11.05;;;;;;;3.41;100.00;96614.25;4911390;29;20469;-58
2021/12/11 01:27:40;;;;;;;1591.07;76.78;;;;;;;3.90;100.00;96622.81;4917450;29;20067;-58
2021/12/11 01:30:12;;;;;;;32.55;10.13;;;;;;;3.74;100.00;96622.53;4912738;29;20726;-59
2021/12/11 01:32:38;;;;;;;444.60;25.80;;;;;;;3.31;100.00;96630.91;4913227;29;20054;-58
2021/12/11 01:35:08;;;;;;;19.30;9.75;;;;;;;3.23;100.00;96637.16;4912444;29;20413;-56
2021/12/11 01:37:34;;;;;;;26.05;10.02;;;;;;;3.45;100.00;96641.59;4916242;29;20099;-57
2021/12/11 01:40:02;;;;;;;18.05;9.27;;;;;;;3.35;100.00;96645.41;4922109;29;20050;-57
2021/12/11 01:42:31;;;;;;;19.25;9.82;;;;;;;3.56;100.00;96647.22;4912954;29;20099;-58
2021/12/11 01:44:59;;;;;;;18.67;8.98;;;;;;;3.18;100.00;96651.97;4913811;29;20671;-57
2021/12/11 01:47:31;;;;;;;19.52;9.07;;;;;;;3.19;100.00;96665.66;4913761;29;20040;-58
2021/12/11 01:50:25;;;;;;;18.88;8.95;;;;;;;3.43;100.00;96662.25;4914324;29;20119;-59
2021/12/11 01:52:59;;;;;;;17.65;8.63;;;;;;;3.16;100.00;96668.34;4911012;29;20052;-58
2021/12/11 01:55:29;;;;;;;18.23;9.23;;;;;;;3.21;100.00;96680.19;4918797;29;20465;-57
2021/12/11 01:57:56;;;;;;;20.42;9.38;;;;;;;2.87;100.00;96685.59;4913736;29;20012;-57
2021/12/11 02:00:29;;;;;;;23.77;9.80;;;;;;;3.05;100.00;96686.72;4915752;29;20604;-57
2021/12/11 02:02:56;;;;;;;23.15;9.70;;;;;;;3.04;100.00;96697.94;4915710;29;20032;-57
2021/12/11 02:05:25;;;;;;;18.25;9.10;;;;;;;3.32;100.00;96697.03;4921263;29;22700;-57
2021/12/11 02:07:55;;;;;;;20.48;9.88;;;;;;;3.22;100.00;96693.94;4913868;29;20012;-57
2021/12/11 02:10:33;;;;;;;22.73;9.07;;;;;;;3.45;100.00;96700.88;4913906;29;20120;-57
2021/12/11 02:13:02;;;;;;;19.33;9.45;;;;;;;3.36;100.00;96704.59;4914286;29;20024;-57
2021/12/11 02:15:34;;;;;;;849.47;47.92;;;;;;;3.79;100.00;96717.81;4914026;29;20036;-57
2021/12/11 02:18:12;;;;;;;23.60;9.60;;;;;;;3.52;100.00;96720.41;4913176;29;20023;-57
2021/12/11 02:20:48;;;;;;;19.30;9.32;;;;;;;3.53;100.00;96716.09;4912717;29;20043;-58
2021/12/11 02:23:14;;;;;;;326.00;23.45;;;;;;;3.63;100.00;96723.47;4914052;29;20024;-58
2021/12/11 02:25:46;;;;;;;17.90;9.10;;;;;;;3.27;100.00;96726.38;4914659;28;20081;-57
2021/12/11 02:28:20;;;;;;;20.45;8.93;;;;;;;3.74;100.00;96736.00;4915656;29;20494;-57
2021/12/11 02:31:06;;;;;;;22.85;10.07;;;;;;;3.15;100.00;96737.06;4911710;29;20240;-57
2021/12/11 02:33:44;;;;;;;22.45;10.50;;;;;;;3.36;100.00;96745.00;4912794;29;20426;-57
2021/12/11 02:36:24;;;;;;;23.05;10.05;;;;;;;3.50;100.00;96747.97;4913218;29;20605;-57
2021/12/11 02:38:49;;;;;;;23.08;10.63;;;;;;;3.20;100.00;96754.97;4913314;29;20027;-56
2021/12/11 02:41:28;;;;;;;20.40;9.93;;;;;;;3.17;100.00;96755.06;4920662;29;20108;-57
2021/12/11 02:44:05;;;;;;;27.50;10.10;;;;;;;3.50;100.00;96763.44;4915220;29;20445;-58
2021/12/11 02:46:47;;;;;;;21.40;9.40;;;;;;;3.20;100.00;96760.97;4911493;29;20151;-58
2021/12/11 02:49:32;;;;;;;23.52;9.57;;;;;;;3.62;100.00;96763.06;4913028;29;20542;-59
2021/12/11 02:52:11;;;;;;;22.88;9.98;;;;;;;3.42;100.00;96765.44;4912845;29;20095;-59
2021/12/11 02:55:02;;;;;;;21.63;10.23;;;;;;;3.11;100.00;96763.81;4912940;29;20035;-58
2021/12/11 02:57:32;;;;;;;19.88;9.57;;;;;;;3.45;100.00;96770.47;4912059;29;20052;-57
2021/12/11 03:00:12;;;;;;;18.80;9.23;;;;;;;3.40;100.00;96777.50;4912682;29;20302;-57
2021/12/11 03:02:44;;;;;;;20.52;10.00;;;;;;;3.13;100.00;96774.94;4912737;29;20047;-57
2021/12/11 03:05:12;;;;;;;19.17;9.57;;;;;;;2.79;100.00;96785.41;4913924;29;20119;-58
2021/12/11 03:07:43;;;;;;;20.40;9.40;;;;;;;3.19;100.00;96792.75;4914428;29;20050;-57
2021/12/11 03:10:12;;;;;;;21.45;9.65;;;;;;;3.29;100.00;96793.34;4912990;29;20075;-58
2021/12/11 03:12:39;;;;;;;19.17;9.30;;;;;;;3.31;100.00;96798.41;4912568;29;20034;-57
2021/12/11 03:15:08;;;;;;;22.10;9.85;;;;;;;3.29;100.00;96793.34;4909008;28;20031;-57
2021/12/11 03:17:34;;;;;;;19.80;9.07;;;;;;;3.51;100.00;96808.09;4912909;29;20024;-57
2021/12/11 03:20:00;;;;;;;17.70;9.20;;;;;;;3.34;100.00;96803.50;4921318;29;20039;-57
2021/12/11 03:22:30;;;;;;;53.95;10.95;;;;;;;3.32;100.00;96815.59;4911794;29;20115;-58
2021/12/11 03:24:59;;;;;;;19.30;9.60;;;;;;;3.49;100.00;96813.31;4912004;29;20060;-58
2021/12/11 03:27:26;;;;;;;18.92;9.35;;;;;;;3.15;100.00;96814.38;4911870;29;20184;-58
2021/12/11 03:29:51;;;;;;;18.98;9.18;;;;;;;3.25;100.00;96826.09;4914460;29;20031;-57
2021/12/11 03:32:17;;;;;;;19.48;9.27;;;;;;;3.64;100.00;96827.47;4914107;28;20059;-56
2021/12/11 03:34:45;;;;;;;18.65;9.48;;;;;;;3.44;100.00;96835.84;4911613;29;20998;-57
2021/12/11 03:37:15;;;;;;;16.92;8.48;;;;;;;3.34;100.00;96839.56;4911096;28;20063;-57
2021/12/11 03:39:48;;;;;;;26.58;10.23;;;;;;;3.59;100.00;96840.50;4913013;29;20032;-58
2021/12/11 03:42:18;;;;;;;30.95;9.57;;;;;;;3.73;100.00;96846.94;4908482;29;20547;-58
2021/12/11 03:44:44;;;;;;;17.52;9.60;;;;;;;3.34;100.00;96857.63;4911915;29;20040;-58
2021/12/11 03:47:14;;;;;;;19.13;10.30;;;;;;;3.32;100.00;96856.81;4909293;29;20115;-58
2021/12/11 03:49:40;;;;;;;19.75;9.93;;;;;;;3.30;100.00;96863.75;4914045;29;20078;-58
2021/12/11 03:52:08;;;;;;;18.52;9.20;;;;;;;3.35;100.00;96861.88;4911919;29;20060;-57
2021/12/11 03:54:36;;;;;;;19.30;9.75;;;;;;;3.27;100.00;96874.97;4913757;29;20031;-56
2021/12/11 03:57:03;;;;;;;16.85;8.95;;;;;;;3.56;100.00;96876.69;4910285;28;20047;-56
2021/12/11 03:59:30;;;;;;;17.98;8.60;;;;;;;3.76;100.00;96882.97;4912586;29;20505;-56
2021/12/11 04:02:03;;;;;;;18.33;8.07;;;;;;;3.64;100.00;96890.19;4910510;29;20127;-57
2021/12/11 04:04:33;;;;;;;20.10;8.98;;;;;;;3.68;100.00;96896.09;4912445;29;20030;-57
2021/12/11 04:07:00;;;;;;;18.15;9.43;;;;;;;3.63;100.00;96901.38;4911767;28;20044;-58
2021/12/11 04:09:28;;;;;;;18.50;9.88;;;;;;;3.57;100.00;96896.44;4913335;29;20028;-57
2021/12/11 04:11:56;;;;;;;190.30;19.45;;;;;;;4.11;100.00;96906.78;4914395;29;20042;-59
2021/12/11 04:14:28;;;;;;;111.60;14.60;;;;;;;4.13;100.00;96917.88;4912612;29;20024;-58
2021/12/11 04:16:55;;;;;;;23.27;9.80;;;;;;;4.01;100.00;96919.13;4910908;29;20089;-58
2021/12/11 04:19:21;;;;;;;153.45;14.98;;;;;;;3.99;100.00;96928.66;4912108;29;20028;-57
2021/12/11 04:21:47;;;;;;;197.02;17.95;;;;;;;4.17;100.00;96934.94;4912923;28;20722;-58
2021/12/11 04:24:14;;;;;;;592.35;35.70;;;;;;;4.27;100.00;96938.09;4912495;29;20036;-58
2021/12/11 04:26:40;;;;;;;47.95;11.95;;;;;;;3.80;100.00;96947.28;4913627;29;20039;-57
2021/12/11 04:29:06;;;;;;;90.93;12.10;;;;;;;4.27;100.00;96946.69;4912431;29;20039;-57
2021/12/11 04:31:35;;;;;;;25.88;11.88;;;;;;;3.80;100.00;96941.28;4911166;29;20040;-58
2021/12/11 04:34:05;;;;;;;142.05;15.45;;;;;;;3.76;100.00;96943.09;4914335;29;20705;-58
2021/12/11 04:36:34;;;;;;;989.45;49.30;;;;;;;4.53;100.00;96960.47;4909569;29;20036;-59
2021/12/11 04:39:03;;;;;;;68.43;14.13;;;;;;;3.81;100.00;96954.13;4910318;29;20470;-58
2021/12/11 04:41:37;;;;;;;1150.25;59.17;;;;;;;4.60;100.00;96967.13;4912489;29;20047;-58
2021/12/11 04:44:08;;;;;;;1276.18;74.28;;;;;;;3.86;100.00;96966.91;4913418;29;20041;-57
2021/12/11 04:46:33;;;;;;;910.55;51.38;;;;;;;3.62;100.00;96977.06;4911162;29;20206;-58
2021/12/11 04:49:14;;;;;;;65.40;13.32;;;;;;;4.01;100.00;96975.91;4911129;29;20031;-58
2021/12/11 04:51:49;;;;;;;89.65;12.45;;;;;;;4.60;100.00;96991.19;4911446;29;20422;-58
2021/12/11 05:05:50;;;;;;;26.77;12.82;;;;;;;3.39;100.00;96997.50;4909853;29;20027;-58
2021/12/11 05:08:38;;;;;;;35.78;14.32;;;;;;;3.65;100.00;97004.50;4911433;29;20048;-58
2021/12/11 05:11:01;;;;;;;28.88;12.63;;;;;;;3.48;100.00;97007.56;4912641;29;20046;-57
2021/12/11 05:13:28;;;;;;;34.33;13.18;;;;;;;3.15;100.00;97015.34;4911996;29;20032;-57
2021/12/11 05:16:05;;;;;;;50.42;14.57;;;;;;;3.32;100.00;97016.63;4912177;28;20719;-57
2021/12/11 05:18:32;;;;;;;44.78;13.95;;;;;;;3.21;100.00;97015.16;4910425;29;20093;-57
2021/12/11 05:21:03;;;;;;;28.90;13.02;;;;;;;3.38;100.00;97025.03;4913178;28;20070;-58
2021/12/11 05:23:28;;;;;;;27.65;13.07;;;;;;;3.18;100.00;97033.31;4910186;29;20084;-58
2021/12/11 05:25:54;;;;;;;37.08;13.80;;;;;;;3.28;100.00;97037.31;4911417;29;20442;-57
2021/12/11 05:28:19;;;;;;;32.45;14.13;;;;;;;3.01;100.00;97050.94;4910840;29;20269;-57
2021/12/11 05:30:48;;;;;;;45.33;15.45;;;;;;;3.05;100.00;97049.94;4910035;29;20044;-57
2021/12/11 05:33:15;;;;;;;36.40;15.32;;;;;;;2.95;100.00;97058.81;4910544;29;20056;-57
2021/12/11 05:35:42;;;;;;;31.63;13.90;;;;;;;2.58;100.00;97064.88;4911783;28;20046;-57
2021/12/11 05:38:10;;;;;;;36.75;14.70;;;;;;;2.86;100.00;97059.91;4911719;29;20038;-57
2021/12/11 05:40:39;;;;;;;111.95;18.70;;;;;;;3.00;100.00;97073.28;4910198;29;20043;-57
2021/12/11 05:43:05;;;;;;;47.15;14.50;;;;;;;3.23;100.00;97085.53;4911549;29;20611;-57
2021/12/11 05:45:32;;;;;;;33.88;14.48;;;;;;;3.06;100.00;97087.72;4911900;29;20044;-57
2021/12/11 05:47:57;;;;;;;38.83;14.40;;;;;;;2.83;100.00;97083.13;4909425;29;20036;-59
2021/12/11 05:50:30;;;;;;;39.85;14.77;;;;;;;3.00;100.00;97087.91;4912048;29;20123;-57
2021/12/11 05:52:56;;;;;;;30.98;13.93;;;;;;;3.26;100.00;97085.47;4911316;29;20032;-57
2021/12/11 05:55:22;;;;;;;37.28;15.70;;;;;;;2.81;100.00;97093.50;4909551;28;20034;-57
2021/12/11 05:57:53;;;;;;;55.13;14.90;;;;;;;3.07;100.00;97089.44;4912396;29;20051;-57
2021/12/11 06:00:25;;;;;;;39.80;14.40;;;;;;;3.16;100.00;97098.63;4909651;29;20056;-57
2021/12/11 06:02:51;;;;;;;647.63;45.10;;;;;;;3.96;100.00;97104.19;4909071;29;20074;-57
2021/12/11 06:05:16;;;;;;;46.85;12.93;;;;;;;4.20;100.00;97113.78;4914008;29;20040;-57
2021/12/11 06:07:43;;;;;;;63.00;16.60;;;;;;;3.25;100.00;97119.00;4916609;29;20028;-58
2021/12/11 06:10:14;;;;;;;93.82;13.90;;;;;;;3.83;100.00;97119.19;4914131;28;20032;-57
2021/12/11 06:12:40;;;;;;;48.25;11.60;;;;;;;3.81;100.00;97115.81;4915555;29;20044;-58
2021/12/11 06:15:06;;;;;;;32.78;12.98;;;;;;;3.79;100.00;97133.91;4914644;29;20121;-57
2021/12/11 06:17:33;;;;;;;37.58;12.23;;;;;;;4.05;100.00;97133.16;4914230;29;20526;-57
2021/12/11 06:20:02;;;;;;;137.77;18.27;;;;;;;4.47;100.00;97147.44;4914011;29;20042;-57
2021/12/11 06:22:32;;;;;;;153.82;17.88;;;;;;;4.77;100.00;97150.78;4916167;29;20067;-58
2021/12/11 06:25:00;;;;;;;37.70;15.05;;;;;;;4.10;100.00;97156.25;4914350;29;20320;-58
2021/12/11 06:27:27;;;;;;;34.72;12.50;;;;;;;4.02;100.00;97153.88;4916837;28;20044;-58
2021/12/11 06:29:53;;;;;;;7.00;4.47;;;;;;;4.44;100.00;97160.41;4917381;29;20038;-57
2021/12/11 06:32:18;;;;;;;36.40;14.05;;;;;;;3.85;100.00;97176.72;4916468;29;20430;-58
2021/12/11 06:34:45;;;;;;;45.28;14.68;;;;;;;3.80;100.00;97176.00;4916661;29;20027;-57
2021/12/11 06:37:14;;;;;;;45.13;13.70;;;;;;;4.03;100.00;97178.81;4913667;29;20032;-58
2021/12/11 06:39:40;;;;;;;30.58;13.93;;;;;;;3.99;100.00;97184.09;4921720;29;20095;-59
2021/12/11 06:42:09;;;;;;;31.02;13.43;;;;;;;4.09;100.00;97193.28;4912126;28;20123;-58
2021/12/11 06:44:35;;;;;;;26.88;10.18;;;;;;;4.11;100.00;97199.22;4913424;29;20054;-58
2021/12/11 06:47:04;;;;;;;38.05;10.70;;;;;;;4.83;100.00;97210.03;4913111;28;20410;-59
2021/12/11 06:49:33;;;;;;;37.60;11.85;;;;;;;4.55;100.00;97219.50;4914745;29;20028;-57
2021/12/11 06:52:00;;;;;;;33.72;10.98;;;;;;;4.97;100.00;97230.28;4915082;29;20048;-58
2021/12/11 06:54:26;;;;;;;26.42;12.15;;;;;;;4.39;100.00;97238.03;4912549;29;20087;-58
2021/12/11 06:56:52;;;;;;;27.80;13.50;;;;;;;4.03;100.00;97240.72;4914239;28;20052;-57
2021/12/11 06:59:20;;;;;;;29.83;13.27;;;;;;;4.17;100.00;97249.81;4911414;29;20071;-60
2021/12/11 07:01:45;;;;;;;35.03;10.20;;;;;;;4.50;100.00;97252.34;4911929;29;20044;-57
2021/12/11 07:04:12;;;;;;;39.50;14.20;;;;;;;4.02;100.00;97259.66;4915676;29;20064;-58
2021/12/11 07:06:42;;;;;;;11.38;5.85;;;;;;;4.50;100.00;97270.44;4912823;29;20557;-57
2021/12/11 07:09:10;;;;;;;35.50;14.20;;;;;;;4.70;100.00;97273.28;4912708;29;20297;-59
2021/12/11 07:11:39;;;;;;;23.17;11.05;;;;;;;4.53;100.00;97278.09;4912293;28;20048;-57
2021/12/11 07:14:06;;;;;;;30.95;12.35;;;;;;;4.44;100.00;97280.03;4914850;29;20090;-57
2021/12/11 07:16:31;;;;;;;33.35;12.32;;;;;;;4.58;100.00;97290.00;4911255;29;20036;-58
2021/12/11 07:18:57;;;;;;;28.52;12.70;;;;;;;3.98;100.00;97290.78;4914188;29;20062;-57
2021/12/11 07:21:22;;;;;;;30.63;9.63;;;;;;;4.80;100.00;97297.97;4913082;29;20043;-58
2021/12/11 07:23:49;;;;;;;32.80;8.02;;;;;;;5.60;100.00;97313.63;4913841;29;20031;-57
2021/12/11 07:26:19;;;;;;;41.15;11.13;;;;;;;5.75;100.00;97316.59;4913160;29;20036;-58
2021/12/11 07:28:48;;;;;;;30.73;10.60;;;;;;;4.61;100.00;97312.28;4914305;29;20043;-58
2021/12/11 07:31:15;;;;;;;27.58;9.68;;;;;;;5.22;100.00;97318.28;4919850;29;20699;-58
2021/12/11 07:33:40;;;;;;;21.85;9.70;;;;;;;4.60;100.00;97326.13;4912063;29;20066;-57
2021/12/11 07:36:06;;;;;;;18.15;6.80;;;;;;;4.98;100.00;97331.91;4919559;29;20142;-58
2021/12/11 07:38:32;;;;;;;27.85;12.40;;;;;;;4.33;100.00;97338.03;4913642;29;20036;-58
2021/12/11 07:41:03;;;;;;;34.00;13.38;;;;;;;4.47;100.00;97340.22;4911653;29;20043;-58
2021/12/11 07:43:29;;;;;;;26.33;12.57;;;;;;;3.76;100.00;97344.63;4912278;29;20095;-58
2021/12/11 07:45:56;;;;;;;26.17;11.88;;;;;;;3.65;100.00;97350.88;4912894;28;20443;-57
2021/12/11 07:48:22;;;;;;;26.83;12.55;;;;;;;3.35;100.00;97361.94;4911133;29;20569;-57
2021/12/11 07:50:47;;;;;;;27.83;12.52;;;;;;;3.61;100.00;97369.06;4913195;29;20044;-58
2021/12/11 07:53:14;;;;;;;31.77;13.50;;;;;;;3.71;100.00;97370.53;4915375;29;20091;-57
2021/12/11 07:55:40;;;;;;;30.98;13.02;;;;;;;3.37;100.00;97380.78;4912678;29;20049;-57
2021/12/11 07:58:06;;;;;;;35.88;13.55;;;;;;;3.38;100.00;97382.47;4912616;29;20036;-58
2021/12/11 08:00:34;;;;;;;26.45;12.02;;;;;;;3.42;100.00;97387.53;4913526;28;20040;-58
2021/12/11 08:03:00;;;;;;;31.83;12.38;;;;;;;3.50;100.00;97387.34;4914203;29;20032;-57
2021/12/11 08:05:27;;;;;;;28.02;12.57;;;;;;;3.58;100.00;97405.22;4911856;29;20050;-57
2021/12/11 08:07:53;;;;;;;29.65;13.73;;;;;;;3.25;100.00;97410.25;4912103;29;20035;-57
2021/12/11 08:10:22;;;;;;;32.53;13.25;;;;;;;3.44;100.00;97419.28;4912343;28;20040;-57
2021/12/11 08:12:48;;;;;;;28.48;12.85;;;;;;;3.55;100.00;97416.47;4911613;29;20163;-57
2021/12/11 08:15:15;;;;;;;29.08;12.52;;;;;;;3.61;100.00;97439.53;4911674;29;20119;-57
2021/12/11 08:17:41;;;;;;;31.77;13.13;;;;;;;3.59;100.00;97438.72;4912044;29;20024;-57
2021/12/11 08:20:11;;;;;;;26.35;12.23;;;;;;;3.45;100.00;97445.91;4912042;29;20023;-58
2021/12/11 08:22:37;;;;;;;31.60;12.63;;;;;;;3.42;100.00;97446.84;4911050;29;20024;-57
2021/12/11 08:25:04;;;;;;;27.08;12.57;;;;;;;3.51;100.00;97448.38;4910945;29;20044;-56
2021/12/11 08:27:30;;;;;;;31.23;13.27;;;;;;;3.38;100.00;97450.38;4909412;29;20135;-58
2021/12/11 08:29:56;;;;;;;30.00;13.00;;;;;;;3.74;100.00;97457.31;4911651;29;20035;-57
2021/12/11 08:32:24;;;;;;;26.33;12.35;;;;;;;3.66;100.00;97460.09;4911686;29;20063;-58
2021/12/11 08:34:50;;;;;;;30.10;13.38;;;;;;;3.47;100.00;97472.50;4910793;29;20028;-57
2021/12/11 08:37:18;;;;;;;23.42;10.70;;;;;;;3.66;100.00;97476.41;4912629;29;20096;-58
2021/12/11 08:39:45;;;;;;;24.70;12.32;;;;;;;3.60;100.00;97479.13;4913709;29;20038;-58
2021/12/11 08:42:16;;;;;;;24.35;12.18;;;;;;;4.01;100.00;97485.06;4912990;28;20051;-57
2021/12/11 08:44:49;;;;;;;24.40;11.93;;;;;;;3.97;100.00;97491.19;4912661;29;20039;-59
2021/12/11 08:47:16;;;;;;;26.27;13.18;;;;;;;4.01;100.00;97502.31;4911383;29;20758;-59
2021/12/11 08:49:42;;;;;;;23.75;10.88;;;;;;;4.07;100.00;97499.56;4914499;29;20028;-58
2021/12/11 08:52:39;;;;;;;28.05;12.68;;;;;;;3.67;100.00;97506.44;4911795;29;20135;-58
2021/12/11 08:55:09;;;;;;;30.80;11.52;;;;;;;4.12;100.00;97507.19;4913387;29;20044;-57
2021/12/11 08:57:38;;;;;;;24.40;10.68;;;;;;;4.35;100.00;97507.50;4912398;29;20119;-57
2021/12/11 09:00:17;;;;;;;18.20;8.68;;;;;;;4.82;100.00;97515.81;4913207;29;20028;-58
2021/12/11 09:02:49;;;;;;;17.23;7.20;;;;;;;4.51;100.00;97527.81;4913353;29;20556;-60
2021/12/11 09:05:33;;;;;;;30.73;13.52;;;;;;;4.23;100.00;97525.88;4914619;29;20026;-59
2021/12/11 09:08:07;;;;;;;20.48;9.23;;;;;;;4.71;100.00;97535.06;4912602;29;20032;-59
2021/12/11 09:10:43;;;;;;;26.40;12.15;;;;;;;4.52;100.00;97547.56;4913157;29;20056;-61
2021/12/11 09:13:35;;;;;;;25.55;12.80;;;;;;;4.18;100.00;97559.53;4912369;29;20048;-59
2021/12/11 09:16:11;;;;;;;23.05;12.05;;;;;;;4.18;100.00;97569.03;4913215;29;20036;-58
2021/12/11 09:18:52;;;;;;;26.83;12.63;;;;;;;4.21;100.00;97569.81;4911440;29;20462;-59
2021/12/11 09:21:25;;;;;;;28.65;12.70;;;;;;;4.48;100.00;97558.88;4913847;29;20627;-58
2021/12/11 09:24:08;;;;;;;29.08;13.90;;;;;;;4.48;100.00;97569.19;4912777;29;20150;-59
2021/12/11 09:26:52;;;;;;;27.42;13.32;;;;;;;4.59;100.00;97577.53;4914911;28;20546;-57
2021/12/11 09:30:00;;;;;;;29.60;12.73;;;;;;;4.29;100.00;97585.13;4913417;29;20032;-57
2021/12/11 09:32:31;;;;;;;24.25;12.60;;;;;;;4.55;100.00;97596.59;4913037;28;20051;-57
2021/12/11 09:35:05;;;;;;;25.90;11.07;;;;;;;4.61;100.00;97586.09;4911346;29;20034;-58
2021/12/11 09:37:32;;;;;;;28.98;12.70;;;;;;;4.46;100.00;97604.53;4910000;29;20035;-59
2021/12/11 09:40:05;;;;;;;24.52;12.35;;;;;;;4.67;100.00;97596.31;4926723;28;20031;-58
2021/12/11 09:42:30;;;;;;;9.43;4.60;;;;;;;5.41;100.00;97605.63;4913622;29;20098;-57
2021/12/11 09:45:03;;;;;;;30.33;13.30;;;;;;;4.82;100.00;97606.25;4916374;29;20039;-59
2021/12/11 09:47:35;;;;;;;25.15;11.60;;;;;;;4.76;100.00;97610.72;4919882;29;20407;-59
2021/12/11 09:50:04;;;;;;;;;;;;;;;5.24;100.00;97606.94;4913102;29;20087;-57
2021/12/11 09:52:32;;;;;;;26.10;9.13;;;;;;;5.33;100.00;97611.88;4917654;29;19938;-56
2021/12/11 09:55:14;;;;;;;24.08;13.65;;;;;;;4.69;100.00;97614.31;4914102;29;20028;-56
2021/12/11 09:57:43;;;;;;;27.20;14.20;;;;;;;4.69;100.00;97604.00;4913183;29;20722;-57
2021/12/11 10:00:22;;;;;;;24.45;13.23;;;;;;;4.48;100.00;97620.84;4912144;28;20596;-56
2021/12/11 10:02:48;;;;;;;25.25;13.02;;;;;;;4.37;100.00;97619.34;4914029;29;20109;-57
2021/12/11 10:05:39;;;;;;;28.42;13.38;;;;;;;4.33;100.00;97628.06;4912535;28;20662;-56
2021/12/11 10:08:36;;;;;;;26.45;13.68;;;;;;;4.28;100.00;97634.19;4915057;29;20506;-57
2021/12/11 10:11:35;;;;;;;25.83;13.50;;;;;;;4.43;100.00;97641.63;4915362;28;20091;-56
2021/12/11 10:14:14;;;;;;;29.73;14.35;;;;;;;4.31;100.00;97645.31;4908384;29;20080;-57
2021/12/11 10:16:44;;;;;;;27.73;13.70;;;;;;;4.42;100.00;97638.19;4913847;29;20027;-57
2021/12/11 10:19:12;;;;;;;25.25;13.02;;;;;;;4.44;100.00;97646.72;4915963;29;20039;-56
2021/12/11 10:21:47;;;;;;;26.63;14.13;;;;;;;4.47;100.00;97650.13;4911971;28;20138;-57
2021/12/11 10:24:18;;;;;;;29.35;14.55;;;;;;;4.74;100.00;97656.41;4925600;28;20119;-58
2021/12/11 10:26:43;;;;;;;25.05;13.88;;;;;;;4.47;100.00;97670.78;4912887;28;20044;-56
2021/12/11 10:29:12;;;;;;;26.85;14.27;;;;;;;4.70;100.00;97672.88;4912645;29;20117;-57
2021/12/11 10:31:42;;;;;;;25.73;13.23;;;;;;;4.57;100.00;97672.31;4914190;29;20123;-57
2021/12/11 10:34:13;;;;;;;27.58;13.88;;;;;;;4.65;100.00;97675.56;4914648;29;20208;-56
2021/12/11 10:36:45;;;;;;;25.30;12.70;;;;;;;4.40;100.00;97686.44;4913076;28;20040;-57
2021/12/11 10:39:14;;;;;;;26.95;13.32;;;;;;;4.62;100.00;97684.22;4912543;29;20047;-56
2021/12/11 10:41:40;;;;;;;28.45;13.32;;;;;;;4.52;100.00;97689.63;4912247;29;20040;-55
2021/12/11 10:44:14;;;;;;;5.88;3.45;;;;;;;7.11;100.00;97705.19;4912843;29;20036;-55
2021/12/11 10:46:45;;;;;;;12.88;6.95;;;;;;;10.29;100.00;97708.78;4912601;28;20044;-58
2021/12/11 10:49:13;;;;;;;27.23;13.38;;;;;;;6.57;100.00;97704.22;4913310;29;20071;-56
2021/12/11 10:51:47;;;;;;;22.92;12.93;;;;;;;5.72;100.00;97702.28;4911476;28;20446;-58
2021/12/11 10:54:16;;;;;;;24.45;13.45;;;;;;;4.83;100.00;97702.72;4912316;29;20028;-55
2021/12/11 10:56:42;;;;;;;25.30;13.68;;;;;;;4.88;100.00;97708.63;4913145;29;20187;-56
2021/12/11 10:59:12;;;;;;;21.55;12.68;;;;;;;5.02;100.00;97713.50;4912488;29;20141;-56
2021/12/11 11:01:44;;;;;;;22.75;12.65;;;;;;;4.88;100.00;97707.78;4913143;28;20047;-57
2021/12/11 11:04:15;;;;;;;21.37;12.93;;;;;;;5.23;100.00;97714.72;4910835;29;20031;-57
2021/12/11 11:06:42;;;;;;;23.33;13.02;;;;;;;5.32;100.00;97718.81;4912130;29;20043;-57
2021/12/11 11:09:09;;;;;;;22.98;12.75;;;;;;;5.26;100.00;97721.56;4914064;29;20043;-57
2021/12/11 11:11:36;;;;;;;22.20;12.27;;;;;;;4.90;100.00;97721.53;4911279;29;20569;-56
2021/12/11 11:14:04;;;;;;;23.77;12.68;;;;;;;4.82;100.00;97725.13;4913390;29;20153;-56
2021/12/11 11:16:30;;;;;;;23.15;12.45;;;;;;;4.97;100.00;97728.25;4910297;28;20044;-56
2021/12/11 11:18:56;;;;;;;22.95;11.98;;;;;;;5.01;100.00;97724.72;4913203;29;20031;-57
2021/12/11 11:21:26;;;;;;;20.45;11.15;;;;;;;4.93;100.00;97731.81;4912175;29;20044;-57
2021/12/11 11:23:53;;;;;;;20.27;11.63;;;;;;;4.86;100.00;97740.56;4913249;29;20031;-57
2021/12/11 11:26:23;;;;;;;24.27;12.77;;;;;;;4.71;100.00;97747.78;4913400;28;20039;-56
2021/12/11 11:28:49;;;;;;;26.25;13.82;;;;;;;4.54;100.00;97755.88;4910297;29;20046;-57
2021/12/11 11:31:18;;;;;;;25.73;13.23;;;;;;;4.59;100.00;97753.19;4914465;29;20064;-56
2021/12/11 11:33:45;;;;;;;25.90;13.23;;;;;;;4.53;100.00;97766.25;4912559;29;20515;-60
2021/12/11 11:36:15;;;;;;;23.80;12.63;;;;;;;4.30;100.00;97772.72;4910784;28;20040;-58
2021/12/11 11:38:44;;;;;;;24.95;12.68;;;;;;;4.60;100.00;97775.56;4911330;29;20047;-57
2021/12/11 11:41:14;;;;;;;27.77;12.93;;;;;;;4.43;100.00;97784.50;4912176;29;20563;-59
2021/12/11 11:43:41;;;;;;;24.08;12.70;;;;;;;4.67;100.00;97776.28;4928242;28;20030;-58